Culp Creek, Oregon
Current Conditions -  °F | °C
As of 4:16 AM on Thursday 23 Oct 2014 (Local Time) from KEUG Reporting Station
Overcast Overcast  
Wind Chill: 57°   Ceiling: 5500
Heat Index: 57°   Visibility: 10mi
Dew Point: 54°   Wind: 8mph
Humidity: 89%   Direction: 180°S
Pressure: 29.8"   Gusts: NA
Location:  43.7°N, 122.85°W
Report Text: KEUG 231116Z AUTO 18007KT 10SM SCT028 BKN055 OVC080 14/12 A2980 RMK AO2 T01390122
Loading
Personal Weather Stations






























Interactive Weather Map
Tropical Storm Tracking
New forecast layout! Learn more

10-Day Weather Forecast

Advertisements
Track Severe Weather on mobile